createdAt,value
2023-01-07T00:00:10.892Z,101382.20
2023-01-07T00:03:02.069Z,101386.40
2023-01-07T00:05:30.831Z,101387.20
2023-01-07T00:08:00.775Z,101383.80
2023-01-07T00:10:29.533Z,101383.00
2023-01-07T00:12:58.404Z,101379.80
2023-01-07T00:15:27.203Z,101374.00
2023-01-07T00:17:55.675Z,101372.00
2023-01-07T00:20:24.489Z,101382.40
2023-01-07T00:22:53.152Z,101379.80
2023-01-07T00:25:22.048Z,101389.00
2023-01-07T00:27:51.472Z,101390.60
2023-01-07T00:30:20.031Z,101394.00
2023-01-07T00:33:09.198Z,101395.20
2023-01-07T00:35:38.205Z,101393.20
2023-01-07T00:38:07.505Z,101392.60
2023-01-07T00:40:36.288Z,101398.00
2023-01-07T00:43:05.995Z,101402.40
2023-01-07T00:45:37.386Z,101402.80
2023-01-07T00:48:06.708Z,101404.20
2023-01-07T00:50:37.486Z,101404.00
2023-01-07T00:53:06.586Z,101398.40
2023-01-07T00:55:35.478Z,101399.00
2023-01-07T00:58:05.179Z,101391.20
2023-01-07T01:00:34.213Z,101389.20
2023-01-07T01:03:03.689Z,101387.60
2023-01-07T01:05:32.963Z,101388.60
2023-01-07T01:08:01.875Z,101390.80
2023-01-07T01:10:31.307Z,101389.20
2023-01-07T01:13:01.427Z,101389.60
2023-01-07T01:15:30.138Z,101390.80
2023-01-07T01:17:58.666Z,101392.80
2023-01-07T01:20:27.358Z,101401.20
2023-01-07T01:22:55.953Z,101403.80
2023-01-07T01:25:24.829Z,101399.40
2023-01-07T01:27:53.417Z,101400.40
2023-01-07T01:30:22.104Z,101399.60
2023-01-07T01:32:51.340Z,101402.60
2023-01-07T01:35:20.126Z,101403.80
2023-01-07T01:37:49.700Z,101406.40
2023-01-07T01:40:18.488Z,101401.00
2023-01-07T01:42:47.072Z,101402.00
2023-01-07T01:45:18.015Z,101394.80
2023-01-07T01:47:59.806Z,101390.40
2023-01-07T01:50:39.857Z,101395.80
2023-01-07T01:53:22.984Z,101394.20
2023-01-07T01:56:04.844Z,101392.60
2023-01-07T01:58:41.457Z,101389.00
2023-01-07T02:01:10.355Z,101385.00
2023-01-07T02:03:39.950Z,101388.80
2023-01-07T02:06:18.060Z,101387.80
2023-01-07T02:08:46.656Z,101391.40
2023-01-07T02:11:25.469Z,101387.20
2023-01-07T02:14:29.587Z,101385.40
2023-01-07T02:17:36.954Z,101385.80
2023-01-07T02:20:50.321Z,101386.40
2023-01-07T02:24:08.672Z,101383.00
2023-01-07T02:26:43.293Z,101379.40
2023-01-07T02:30:00.416Z,101381.00
2023-01-07T02:32:39.554Z,101381.00
2023-01-07T02:35:43.971Z,101382.60
2023-01-07T02:38:32.832Z,101381.80
2023-01-07T02:41:44.226Z,101377.20
2023-01-07T02:44:43.625Z,101382.80
2023-01-07T02:47:34.538Z,101379.60
2023-01-07T02:50:07.503Z,101372.20
2023-01-07T02:52:37.546Z,101367.60
2023-01-07T02:55:54.359Z,101370.00
2023-01-07T02:58:52.330Z,101367.00
2023-01-07T03:02:09.146Z,101357.00
2023-01-07T03:04:40.813Z,101358.40
2023-01-07T03:07:21.479Z,101351.20
2023-01-07T03:10:01.936Z,101353.80
2023-01-07T03:12:45.979Z,101353.20
2023-01-07T03:15:37.298Z,101361.00
2023-01-07T03:18:30.461Z,101353.00
2023-01-07T03:21:11.315Z,101353.80
2023-01-07T03:23:48.003Z,101354.40
2023-01-07T03:26:26.997Z,101359.20
2023-01-07T03:28:59.816Z,101346.00
2023-01-07T03:31:29.948Z,101350.20
2023-01-07T03:34:12.754Z,101349.80
2023-01-07T03:36:53.320Z,101351.60
2023-01-07T03:39:26.208Z,101345.40
2023-01-07T03:42:14.353Z,101346.60
2023-01-07T03:44:43.452Z,101344.20
2023-01-07T03:47:13.013Z,101346.60
2023-01-07T03:49:42.060Z,101344.40
2023-01-07T03:52:10.941Z,101345.60
2023-01-07T03:54:39.525Z,101340.80
2023-01-07T03:57:08.829Z,101339.20
2023-01-07T03:59:38.155Z,101339.00
2023-01-07T04:02:07.266Z,101338.80
2023-01-07T04:04:37.348Z,101335.80
2023-01-07T04:07:06.446Z,101335.60
2023-01-07T04:09:35.031Z,101336.60
2023-01-07T04:12:04.025Z,101341.80
2023-01-07T04:14:33.116Z,101341.40
2023-01-07T04:17:01.703Z,101347.00
2023-01-07T04:19:30.182Z,101346.20
2023-01-07T04:22:00.104Z,101338.20
2023-01-07T04:24:28.989Z,101337.40
2023-01-07T04:26:57.681Z,101334.60
2023-01-07T04:29:26.468Z,101338.80
2023-01-07T04:31:55.672Z,101334.20
2023-01-07T04:34:25.371Z,101332.00
2023-01-07T04:36:54.368Z,101336.80
2023-01-07T04:39:24.185Z,101334.40
2023-01-07T04:41:52.971Z,101338.20
2023-01-07T04:44:21.985Z,101341.00
2023-01-07T04:46:50.962Z,101346.80
2023-01-07T04:49:20.700Z,101342.80
2023-01-07T04:51:49.563Z,101343.60
2023-01-07T04:54:18.353Z,101341.40
2023-01-07T04:56:46.939Z,101344.60
2023-01-07T04:59:16.442Z,101335.40
2023-01-07T05:01:45.362Z,101333.00
2023-01-07T05:04:14.382Z,101332.80
2023-01-07T05:06:43.320Z,101335.80
2023-01-07T05:09:12.545Z,101342.60
2023-01-07T05:11:41.111Z,101347.40
2023-01-07T05:14:12.581Z,101353.80
2023-01-07T05:16:41.470Z,101357.80
2023-01-07T05:19:12.091Z,101352.00
2023-01-07T05:21:44.049Z,101350.80
2023-01-07T05:24:13.451Z,101344.20
2023-01-07T05:26:42.337Z,101342.60
2023-01-07T05:29:11.345Z,101337.40
2023-01-07T05:31:41.356Z,101331.80
2023-01-07T05:34:10.555Z,101340.00
2023-01-07T05:36:39.545Z,101341.20
2023-01-07T05:39:08.443Z,101343.20
2023-01-07T05:41:37.328Z,101343.80
2023-01-07T05:44:06.337Z,101351.60
2023-01-07T05:46:35.057Z,101348.20
2023-01-07T05:49:03.901Z,101352.20
2023-01-07T05:51:32.690Z,101350.00
2023-01-07T05:54:01.307Z,101351.20
2023-01-07T05:56:29.960Z,101352.00
2023-01-07T05:58:58.545Z,101345.00
2023-01-07T06:01:27.571Z,101341.20
2023-01-07T06:03:56.458Z,101339.20
2023-01-07T06:06:25.329Z,101336.40
2023-01-07T06:08:53.907Z,101328.80
2023-01-07T06:11:22.493Z,101323.80
2023-01-07T06:13:51.281Z,101321.00
2023-01-07T06:16:19.762Z,101320.00
2023-01-07T06:18:48.350Z,101321.40
2023-01-07T06:21:18.528Z,101322.00
2023-01-07T06:23:47.049Z,101321.60
2023-01-07T06:26:15.634Z,101315.20
2023-01-07T06:28:44.342Z,101313.60
2023-01-07T06:31:13.291Z,101315.80
2023-01-07T06:33:42.106Z,101313.80
2023-01-07T06:36:10.791Z,101316.80
2023-01-07T06:38:39.584Z,101319.20
2023-01-07T06:41:09.373Z,101331.80
2023-01-07T06:43:37.876Z,101339.80
2023-01-07T06:46:06.822Z,101343.40
2023-01-07T06:48:35.355Z,101338.40
2023-01-07T06:51:04.341Z,101341.00
2023-01-07T06:53:32.932Z,101334.40
2023-01-07T06:56:01.412Z,101333.20
2023-01-07T06:58:30.412Z,101332.00
2023-01-07T07:01:07.612Z,101338.80
2023-01-07T07:03:36.176Z,101340.80
2023-01-07T07:06:05.664Z,101344.20
2023-01-07T07:08:34.308Z,101344.60
2023-01-07T07:11:02.880Z,101343.80
2023-01-07T07:13:31.444Z,101348.40
2023-01-07T07:16:00.184Z,101346.60
2023-01-07T07:18:29.320Z,101349.80
2023-01-07T07:20:58.930Z,101353.40
2023-01-07T07:23:27.618Z,101348.40
2023-01-07T07:25:56.200Z,101342.60
2023-01-07T07:28:24.910Z,101350.20
2023-01-07T07:30:53.646Z,101344.20
2023-01-07T07:33:22.779Z,101354.40
2023-01-07T07:35:51.500Z,101345.00
2023-01-07T07:38:20.145Z,101355.80
2023-01-07T07:40:49.280Z,101358.80
2023-01-07T07:43:17.844Z,101360.20
2023-01-07T07:45:46.614Z,101359.20
2023-01-07T07:48:16.516Z,101360.00
2023-01-07T07:50:45.180Z,101352.00
2023-01-07T07:53:15.440Z,101353.40
2023-01-07T07:55:44.043Z,101360.00
2023-01-07T07:58:13.630Z,101365.40
2023-01-07T08:00:42.218Z,101360.20
2023-01-07T08:03:11.792Z,101358.20
2023-01-07T08:05:43.769Z,101351.80
2023-01-07T08:08:15.061Z,101347.60
2023-01-07T08:10:43.963Z,101339.40
2023-01-07T08:13:12.531Z,101337.60
2023-01-07T08:15:41.200Z,101330.00
2023-01-07T08:18:10.629Z,101326.80
2023-01-07T08:20:39.338Z,101325.40
2023-01-07T08:23:09.337Z,101321.20
2023-01-07T08:25:37.892Z,101312.00
2023-01-07T08:28:06.578Z,101315.60
2023-01-07T08:30:35.677Z,101310.00
2023-01-07T08:33:07.706Z,101305.80
2023-01-07T08:35:36.428Z,101305.80
2023-01-07T08:38:09.728Z,101306.00
2023-01-07T08:40:39.232Z,101306.80
2023-01-07T08:43:12.470Z,101304.00
2023-01-07T08:45:41.015Z,101301.00
2023-01-07T08:48:09.693Z,101294.20
2023-01-07T08:50:38.294Z,101294.20
2023-01-07T08:53:06.760Z,101300.60
2023-01-07T08:55:35.553Z,101290.80
2023-01-07T08:58:04.143Z,101295.40
2023-01-07T09:00:32.946Z,101300.20
2023-01-07T09:03:03.330Z,101298.60
2023-01-07T09:05:33.366Z,101298.80
2023-01-07T09:08:04.311Z,101301.40
2023-01-07T09:10:32.798Z,101307.80
2023-01-07T09:13:01.479Z,101310.00
2023-01-07T09:15:30.162Z,101315.20
2023-01-07T09:17:58.750Z,101309.60
2023-01-07T09:20:27.336Z,101310.20
2023-01-07T09:22:55.929Z,101308.80
2023-01-07T09:25:24.835Z,101307.20
2023-01-07T09:27:53.497Z,101305.00
2023-01-07T09:30:22.181Z,101305.00
2023-01-07T09:32:50.779Z,101303.60
2023-01-07T09:35:20.414Z,101300.60
2023-01-07T09:37:49.062Z,101305.00
2023-01-07T09:40:30.754Z,101299.80
2023-01-07T09:43:18.686Z,101295.60
2023-01-07T09:45:54.046Z,101296.20
2023-01-07T09:48:41.081Z,101297.20
2023-01-07T09:51:28.894Z,101292.00
2023-01-07T09:54:04.342Z,101299.60
2023-01-07T09:56:35.608Z,101294.20
2023-01-07T09:59:05.960Z,101296.60
2023-01-07T10:01:45.244Z,101293.00
2023-01-07T10:04:34.726Z,101285.80
2023-01-07T10:07:09.350Z,101287.60
2023-01-07T10:10:08.445Z,101289.00
2023-01-07T10:13:00.806Z,101282.40
2023-01-07T10:15:48.725Z,101276.40
2023-01-07T10:18:33.703Z,101278.00
2023-01-07T10:21:27.062Z,101272.00
2023-01-07T10:24:05.684Z,101264.40
2023-01-07T10:26:41.156Z,101261.00
2023-01-07T10:29:28.035Z,101264.40
2023-01-07T10:32:01.874Z,101264.00
2023-01-07T10:34:38.841Z,101261.40
2023-01-07T10:37:33.526Z,101249.20
2023-01-07T10:40:17.272Z,101245.40
2023-01-07T10:43:20.043Z,101245.40
2023-01-07T10:46:20.521Z,101246.00
2023-01-07T10:49:03.094Z,101243.20
2023-01-07T10:52:17.960Z,101231.60
2023-01-07T10:55:14.197Z,101230.40
2023-01-07T10:57:43.289Z,101231.80
2023-01-07T11:00:17.222Z,101227.60
2023-01-07T11:02:58.126Z,101221.80
2023-01-07T11:05:37.209Z,101220.00
2023-01-07T11:08:16.437Z,101212.60
2023-01-07T11:10:45.129Z,101206.80
2023-01-07T11:13:19.701Z,101206.20
2023-01-07T11:16:00.895Z,101197.60
2023-01-07T11:18:52.876Z,101196.20
2023-01-07T11:21:49.001Z,101193.40
2023-01-07T11:24:30.912Z,101183.00
2023-01-07T11:27:18.548Z,101178.40
2023-01-07T11:30:04.000Z,101172.40
2023-01-07T11:32:38.678Z,101164.60
2023-01-07T11:35:29.259Z,101162.20
2023-01-07T11:38:00.237Z,101158.60
2023-01-07T11:40:32.920Z,101157.00
2023-01-07T11:43:16.587Z,101158.80
2023-01-07T11:46:19.418Z,101153.60
2023-01-07T11:49:03.331Z,101153.40
2023-01-07T11:51:40.800Z,101152.00
2023-01-07T11:54:26.336Z,101147.80
2023-01-07T11:57:25.801Z,101142.60
2023-01-07T12:00:31.666Z,101140.60
2023-01-07T12:03:13.427Z,101131.60
2023-01-07T12:05:45.333Z,101136.20
2023-01-07T12:08:22.611Z,101138.80
2023-01-07T12:11:02.977Z,101131.20
2023-01-07T12:13:32.505Z,101128.40
2023-01-07T12:16:05.815Z,101125.80
2023-01-07T12:19:11.011Z,101120.60
2023-01-07T12:21:51.776Z,101118.80
2023-01-07T12:24:50.165Z,101119.40
2023-01-07T12:27:46.705Z,101120.80
2023-01-07T12:30:44.130Z,101112.60
2023-01-07T12:33:32.410Z,101110.00
2023-01-07T12:36:56.086Z,101104.80
2023-01-07T12:39:39.929Z,101104.60
2023-01-07T12:42:18.961Z,101106.00
2023-01-07T12:44:52.702Z,101103.00
2023-01-07T12:47:34.938Z,101104.00
2023-01-07T12:50:32.231Z,101093.00
2023-01-07T12:53:16.171Z,101097.60
2023-01-07T12:55:54.297Z,101101.20
2023-01-07T12:59:47.339Z,101101.60
2023-01-07T13:02:30.980Z,101101.60
2023-01-07T13:05:36.754Z,101091.40
2023-01-07T13:09:00.420Z,101088.80
2023-01-07T13:11:59.205Z,101076.40
2023-01-07T13:14:36.784Z,101077.20
2023-01-07T13:17:30.781Z,101067.60
2023-01-07T13:20:58.660Z,101061.20
2023-01-07T13:24:00.744Z,101061.60
2023-01-07T13:27:01.135Z,101055.60
2023-01-07T13:30:01.587Z,101054.40
2023-01-07T13:32:35.919Z,101051.00
2023-01-07T13:35:29.169Z,101044.00
2023-01-07T13:38:24.173Z,101041.80
2023-01-07T13:41:20.203Z,101032.00
2023-01-07T13:44:40.093Z,101034.20
2023-01-07T13:47:12.357Z,101035.80
2023-01-07T13:49:57.065Z,101032.00
2023-01-07T13:52:33.842Z,101031.20
2023-01-07T13:55:29.763Z,101036.40
2023-01-07T13:57:59.058Z,101028.20
2023-01-07T14:01:18.961Z,101033.00
2023-01-07T14:03:55.179Z,101031.60
2023-01-07T14:06:24.175Z,101026.00
2023-01-07T14:09:00.219Z,101028.00
2023-01-07T14:11:32.809Z,101015.40
2023-01-07T14:14:54.642Z,101012.40
2023-01-07T14:17:40.648Z,101014.00
2023-01-07T14:20:27.454Z,101009.20
2023-01-07T14:23:39.793Z,101010.80
2023-01-07T14:26:17.568Z,101003.40
2023-01-07T14:29:40.108Z,100999.40
2023-01-07T14:32:38.253Z,101000.80
2023-01-07T14:35:13.327Z,101002.80
2023-01-07T14:37:47.436Z,100999.00
2023-01-07T14:40:30.665Z,100996.60
2023-01-07T14:43:01.289Z,100997.40
2023-01-07T14:45:42.380Z,100994.60
2023-01-07T14:48:10.967Z,100995.40
2023-01-07T14:51:36.584Z,100998.60
2023-01-07T14:54:33.533Z,100998.20
2023-01-07T14:57:29.967Z,101000.00
2023-01-07T15:00:54.112Z,101003.20
2023-01-07T15:04:09.335Z,101001.20
2023-01-07T15:06:42.219Z,100993.80
2023-01-07T15:09:39.071Z,100995.20
2023-01-07T15:12:37.862Z,100999.80
2023-01-07T15:15:57.048Z,100990.00
2023-01-07T15:18:26.129Z,100996.00
2023-01-07T15:21:33.933Z,101000.80
2023-01-07T15:24:25.968Z,100997.40
2023-01-07T15:27:39.528Z,100997.20
2023-01-07T15:30:36.152Z,101000.40
2023-01-07T15:33:35.554Z,100998.80
2023-01-07T15:36:09.251Z,100996.00
2023-01-07T15:38:56.578Z,100992.80
2023-01-07T15:41:36.057Z,100998.20
2023-01-07T15:44:25.176Z,100995.20
2023-01-07T15:46:54.137Z,100990.80
2023-01-07T15:49:28.151Z,100993.60
2023-01-07T15:52:02.249Z,100995.20
2023-01-07T15:54:39.637Z,100993.20
2023-01-07T15:57:37.279Z,100993.60
2023-01-07T16:00:09.024Z,100993.80
2023-01-07T16:02:43.943Z,100998.20
2023-01-07T16:05:12.943Z,100993.80
2023-01-07T16:07:53.739Z,100998.20
2023-01-07T16:10:27.648Z,100996.40
2023-01-07T16:13:16.499Z,100994.40
2023-01-07T16:15:45.290Z,100994.60
2023-01-07T16:18:15.103Z,100993.20
2023-01-07T16:20:58.359Z,100990.40
2023-01-07T16:23:31.178Z,100988.00
2023-01-07T16:26:23.345Z,100990.20
2023-01-07T16:28:57.943Z,100992.40
2023-01-07T16:31:29.958Z,100986.80
2023-01-07T16:34:00.443Z,100982.20
2023-01-07T16:36:32.686Z,100987.00
2023-01-07T16:39:14.851Z,100986.20
2023-01-07T16:41:47.493Z,100986.60
2023-01-07T16:44:45.493Z,100980.00
2023-01-07T16:47:27.298Z,100983.40
2023-01-07T16:50:17.780Z,100984.60
2023-01-07T16:52:57.477Z,100982.60
2023-01-07T16:55:47.794Z,100976.80
2023-01-07T16:58:38.625Z,100974.60
2023-01-07T17:01:09.927Z,100974.80
2023-01-07T17:03:52.131Z,100980.20
2023-01-07T17:06:27.622Z,100982.80
2023-01-07T17:08:57.853Z,100976.40
2023-01-07T17:11:39.032Z,100980.20
2023-01-07T17:14:38.637Z,100984.60
2023-01-07T17:17:28.009Z,100980.60
2023-01-07T17:20:25.592Z,100977.80
2023-01-07T17:22:54.183Z,100975.00
2023-01-07T17:25:28.693Z,100977.80
2023-01-07T17:28:08.647Z,100966.60
2023-01-07T17:30:37.706Z,100966.80
2023-01-07T17:33:06.415Z,100974.00
2023-01-07T17:35:44.492Z,100975.00
2023-01-07T17:38:15.007Z,100967.80
2023-01-07T17:40:45.304Z,100963.60
2023-01-07T17:43:35.571Z,100965.00
2023-01-07T17:46:13.179Z,100962.20
2023-01-07T17:48:41.749Z,100963.00
2023-01-07T17:51:11.963Z,100960.40
2023-01-07T17:53:46.632Z,100959.20
2023-01-07T17:56:16.310Z,100954.80
2023-01-07T17:58:45.412Z,100957.00
2023-01-07T18:01:24.586Z,100953.40
2023-01-07T18:03:53.735Z,100950.80
2023-01-07T18:06:24.987Z,100946.60
2023-01-07T18:08:54.404Z,100945.20
2023-01-07T18:11:46.841Z,100950.80
2023-01-07T18:14:16.431Z,100954.80
2023-01-07T18:16:45.292Z,100944.40
2023-01-07T18:19:15.579Z,100950.80
2023-01-07T18:21:44.142Z,100946.00
2023-01-07T18:24:21.508Z,100942.20
2023-01-07T18:26:50.116Z,100947.00
2023-01-07T18:29:21.284Z,100944.80
2023-01-07T18:31:49.994Z,100946.60
2023-01-07T18:34:18.831Z,100945.60
2023-01-07T18:36:47.318Z,100948.00
2023-01-07T18:39:19.982Z,100954.60
2023-01-07T18:41:51.819Z,100955.80
2023-01-07T18:44:23.278Z,100952.60
2023-01-07T18:46:52.002Z,100955.80
2023-01-07T18:49:20.889Z,100957.60
2023-01-07T18:51:49.882Z,100955.20
2023-01-07T18:54:18.573Z,100956.80
2023-01-07T18:56:47.484Z,100952.00
2023-01-07T18:59:16.052Z,100954.00
2023-01-07T19:01:44.817Z,100948.20
2023-01-07T19:04:13.793Z,100947.20
2023-01-07T19:06:42.525Z,100948.20
2023-01-07T19:09:11.318Z,100944.20
2023-01-07T19:11:50.230Z,100947.40
2023-01-07T19:14:18.816Z,100952.00
2023-01-07T19:16:47.451Z,100950.20
2023-01-07T19:19:16.699Z,100949.20
2023-01-07T19:21:47.028Z,100949.00
2023-01-07T19:24:17.452Z,100948.40
2023-01-07T19:26:47.168Z,100936.80
2023-01-07T19:29:15.852Z,100937.20
2023-01-07T19:31:45.953Z,100935.80
2023-01-07T19:34:16.812Z,100934.80
2023-01-07T19:36:47.478Z,100927.00
2023-01-07T19:39:18.779Z,100925.40
2023-01-07T19:41:48.279Z,100922.40
2023-01-07T19:44:18.311Z,100921.40
2023-01-07T19:46:49.096Z,100920.00
2023-01-07T19:49:18.865Z,100920.40
2023-01-07T19:51:47.968Z,100916.60
2023-01-07T19:54:17.141Z,100912.00
2023-01-07T19:56:50.349Z,100908.00
2023-01-07T19:59:24.565Z,100901.60
2023-01-07T20:02:06.028Z,100908.60
2023-01-07T20:04:35.261Z,100900.60
2023-01-07T20:07:04.655Z,100897.80
2023-01-07T20:09:34.777Z,100892.60
2023-01-07T20:12:03.389Z,100890.80
2023-01-07T20:14:32.048Z,100886.40
2023-01-07T20:17:02.921Z,100879.20
2023-01-07T20:19:32.805Z,100876.80
2023-01-07T20:22:03.559Z,100873.40
2023-01-07T20:24:34.283Z,100879.60
2023-01-07T20:27:05.948Z,100875.20
2023-01-07T20:29:37.748Z,100874.00
2023-01-07T20:32:10.629Z,100868.20
2023-01-07T20:34:45.723Z,100864.80
2023-01-07T20:37:19.523Z,100866.20
2023-01-07T20:39:50.192Z,100864.00
2023-01-07T20:42:22.131Z,100865.60
2023-01-07T20:44:54.752Z,100864.40
2023-01-07T20:47:26.707Z,100856.20
2023-01-07T20:50:01.570Z,100856.20
2023-01-07T20:52:34.117Z,100856.20
2023-01-07T20:55:05.576Z,100859.60
2023-01-07T20:57:34.819Z,100857.40
2023-01-07T21:00:05.468Z,100855.60
2023-01-07T21:02:35.601Z,100852.20
2023-01-07T21:05:06.549Z,100851.60
2023-01-07T21:07:36.201Z,100850.20
2023-01-07T21:10:07.504Z,100849.60
2023-01-07T21:12:37.916Z,100849.80
2023-01-07T21:15:08.143Z,100847.20
2023-01-07T21:17:37.187Z,100848.00
2023-01-07T21:20:13.337Z,100844.80
2023-01-07T21:22:43.237Z,100833.40
2023-01-07T21:25:16.436Z,100830.60
2023-01-07T21:27:49.401Z,100823.80
2023-01-07T21:30:19.691Z,100822.80
2023-01-07T21:32:50.844Z,100823.40
2023-01-07T21:35:23.422Z,100821.00
2023-01-07T21:37:55.182Z,100817.20
2023-01-07T21:40:27.319Z,100816.80
2023-01-07T21:43:01.767Z,100809.00
2023-01-07T21:45:32.933Z,100803.00
2023-01-07T21:48:02.639Z,100804.00
2023-01-07T21:50:33.061Z,100809.00
2023-01-07T21:53:01.633Z,100804.60
2023-01-07T21:55:30.322Z,100800.80
2023-01-07T21:57:59.524Z,100790.40
2023-01-07T22:00:28.895Z,100792.20
2023-01-07T22:02:57.865Z,100785.80
2023-01-07T22:05:26.406Z,100779.80
2023-01-07T22:07:55.192Z,100773.60
2023-01-07T22:10:25.657Z,100776.40
2023-01-07T22:12:55.555Z,100778.00
2023-01-07T22:15:25.348Z,100770.40
2023-01-07T22:17:56.385Z,100779.00
2023-01-07T22:20:26.202Z,100782.80
2023-01-07T22:22:55.836Z,100769.80
2023-01-07T22:25:24.292Z,100765.00
2023-01-07T22:28:02.767Z,100765.60
2023-01-07T22:30:34.550Z,100762.20
2023-01-07T22:33:03.152Z,100760.00
2023-01-07T22:35:35.166Z,100757.20
2023-01-07T22:38:04.532Z,100752.20
2023-01-07T22:40:38.592Z,100747.60
2023-01-07T22:43:12.096Z,100750.20
2023-01-07T22:45:58.950Z,100744.20
2023-01-07T22:48:32.400Z,100743.40
2023-01-07T22:51:12.393Z,100735.40
2023-01-07T22:53:41.486Z,100725.40
2023-01-07T22:56:10.183Z,100722.40
2023-01-07T22:58:38.866Z,100712.00
2023-01-07T23:01:13.491Z,100715.80
2023-01-07T23:03:43.817Z,100712.00
2023-01-07T23:06:15.220Z,100713.60
2023-01-07T23:08:44.574Z,100709.00
2023-01-07T23:11:33.326Z,100702.40
2023-01-07T23:14:03.079Z,100693.40
2023-01-07T23:16:31.922Z,100686.40
2023-01-07T23:19:00.838Z,100681.20
2023-01-07T23:21:31.768Z,100675.20
2023-01-07T23:24:00.995Z,100671.00
2023-01-07T23:26:29.648Z,100661.20
2023-01-07T23:28:58.436Z,100659.00
2023-01-07T23:31:27.241Z,100657.40
2023-01-07T23:33:56.425Z,100652.20
2023-01-07T23:36:25.238Z,100651.20
2023-01-07T23:38:54.340Z,100647.20
2023-01-07T23:41:23.693Z,100637.40
2023-01-07T23:43:52.401Z,100639.00
2023-01-07T23:46:21.192Z,100636.60
2023-01-07T23:48:50.182Z,100639.80
2023-01-07T23:51:21.423Z,100637.40
2023-01-07T23:53:50.425Z,100624.00
2023-01-07T23:56:21.703Z,100623.60
2023-01-07T23:58:51.086Z,100625.60
